Time;durP1;ratioP1;P1;durP2;ratioP2;P2;SDS_P1;SDS_P2;PMS_P1;PMS_P2;Temp;Humidity;BMP_temperature;BMP_pressure;BME280_temperature;BME280_humidity;BME280_pressure;Samples;Min_cycle;Max_cycle;Signal;HPM_P1;HPM_P2
2021/10/07 00:01:59;;;;;;;8.23;6.75;;;;;;;9.98;64.18;94297.16;5003849;28;20049;-77
2021/10/07 00:04:26;;;;;;;8.48;5.38;;;;;;;9.97;64.55;94298.28;5004826;28;20029;-75
2021/10/07 00:06:53;;;;;;;7.32;4.97;;;;;;;10.05;64.05;94276.31;4999722;28;21321;-76
2021/10/07 00:09:18;;;;;;;7.20;5.72;;;;;;;9.99;64.35;94277.50;5006288;28;20503;-76
2021/10/07 00:11:44;;;;;;;8.93;6.65;;;;;;;10.04;63.89;94280.03;5003597;28;20045;-76
2021/10/07 00:14:10;;;;;;;10.32;6.72;;;;;;;10.03;64.03;94283.00;5008427;28;20060;-77
2021/10/07 00:16:36;;;;;;;9.95;6.38;;;;;;;10.05;64.38;94281.63;5014098;28;20038;-73
2021/10/07 00:19:02;;;;;;;10.82;7.13;;;;;;;9.88;64.87;94295.50;5007983;28;20052;-77
2021/10/07 00:21:27;;;;;;;11.02;6.55;;;;;;;9.91;65.05;94285.38;5007489;28;20110;-76
2021/10/07 00:26:25;;;;;;;11.00;5.80;;;;;;;9.78;65.27;94279.78;5008099;28;20041;-73
2021/10/07 00:28:52;;;;;;;9.35;6.50;;;;;;;9.75;65.57;94276.94;5007609;28;20045;-74
2021/10/07 00:31:22;;;;;;;10.77;6.90;;;;;;;9.68;65.64;94274.66;5012187;28;20037;-76
2021/10/07 00:39:03;;;;;;;9.07;6.93;;;;;;;9.44;66.29;94229.72;4997695;28;20071;-76
2021/10/07 00:41:28;;;;;;;12.00;7.45;;;;;;;9.74;66.44;94254.09;5011307;28;20091;-77
2021/10/07 00:43:53;;;;;;;10.63;7.35;;;;;;;9.69;66.20;94265.63;5008678;28;20025;-76
2021/10/07 00:46:19;;;;;;;10.60;7.25;;;;;;;9.69;66.46;94257.66;5008811;28;20523;-76
2021/10/07 00:48:44;;;;;;;13.95;7.18;;;;;;;9.62;66.88;94261.78;5006658;28;20057;-76
2021/10/07 00:51:10;;;;;;;11.85;7.10;;;;;;;9.41;67.01;94240.94;5009479;28;20034;-76
2021/10/07 00:53:36;;;;;;;11.73;7.93;;;;;;;9.49;67.62;94250.06;5009332;28;20048;-72
2021/10/07 00:56:02;;;;;;;11.77;7.72;;;;;;;9.45;67.81;94255.19;5004269;28;20112;-76
2021/10/07 00:58:28;;;;;;;12.25;8.00;;;;;;;9.32;67.90;94245.38;5006529;28;20033;-76
2021/10/07 01:00:53;;;;;;;13.32;8.35;;;;;;;9.38;68.00;94246.84;5010998;28;20084;-74
2021/10/07 01:03:19;;;;;;;12.55;8.20;;;;;;;9.31;68.88;94262.38;5012002;28;20033;-75
2021/10/07 01:05:45;;;;;;;11.95;7.72;;;;;;;9.34;68.33;94245.06;5010118;28;20508;-77
2021/10/07 01:08:11;;;;;;;13.18;7.97;;;;;;;9.57;68.09;94264.53;5007155;28;20041;-77
2021/10/07 01:10:37;;;;;;;10.48;7.00;;;;;;;9.58;67.27;94255.50;5009385;28;20041;-76
2021/10/07 01:13:03;;;;;;;15.13;7.60;;;;;;;9.45;67.04;94241.91;5015038;28;20578;-76
2021/10/07 01:15:28;;;;;;;12.07;7.32;;;;;;;9.59;67.26;94246.44;5008285;28;20026;-76
2021/10/07 01:17:54;;;;;;;10.68;6.88;;;;;;;9.98;65.58;94262.63;5012229;28;20025;-76
2021/10/07 01:20:19;;;;;;;10.57;6.78;;;;;;;9.95;65.69;94255.25;5011627;28;20055;-75
2021/10/07 01:22:44;;;;;;;11.65;7.25;;;;;;;10.01;64.75;94247.97;5009682;28;20052;-76
2021/10/07 01:25:10;;;;;;;10.13;6.60;;;;;;;9.77;65.34;94245.56;5016161;28;20561;-76
2021/10/07 01:27:37;;;;;;;12.48;7.10;;;;;;;9.86;66.10;94249.09;5009895;28;20112;-72
2021/10/07 01:30:10;;;;;;;13.55;6.88;;;;;;;10.02;65.42;94255.66;5010250;28;20671;-77
2021/10/07 01:32:38;;;;;;;10.30;5.72;;;;;;;9.65;65.92;94234.63;5014939;28;20040;-73
2021/10/07 01:35:09;;;;;;;12.38;6.70;;;;;;;9.79;66.18;94256.66;5007725;28;20050;-77
2021/10/07 01:37:35;;;;;;;10.18;6.35;;;;;;;9.85;65.83;94247.50;5004720;28;20980;-76
2021/10/07 01:40:02;;;;;;;10.60;6.43;;;;;;;10.08;65.34;94243.03;5005040;28;20037;-76
2021/10/07 01:42:28;;;;;;;11.02;7.10;;;;;;;10.26;64.31;94256.19;5005551;28;20338;-76
2021/10/07 01:44:54;;;;;;;11.07;6.85;;;;;;;10.08;64.78;94251.00;5008710;28;20480;-76
2021/10/07 01:47:19;;;;;;;11.52;6.72;;;;;;;10.36;63.65;94254.38;5008643;28;20037;-74
2021/10/07 01:49:44;;;;;;;9.93;7.25;;;;;;;10.42;63.70;94253.19;5001844;28;20099;-76
2021/10/07 01:52:10;;;;;;;10.13;5.95;;;;;;;10.09;64.49;94229.44;5015762;28;20392;-77
2021/10/07 01:54:37;;;;;;;9.77;6.97;;;;;;;9.88;65.75;94249.56;5008699;28;20028;-73
2021/10/07 01:57:03;;;;;;;6.53;4.60;;;;;;;9.83;65.82;94239.03;5014942;28;20087;-77
2021/10/07 01:59:28;;;;;;;11.00;6.47;;;;;;;9.60;66.59;94230.22;5008910;28;20066;-76
2021/10/07 02:01:54;;;;;;;10.20;7.07;;;;;;;9.47;67.57;94243.50;5001945;28;20174;-76
2021/10/07 02:04:20;;;;;;;12.55;7.38;;;;;;;9.55;66.97;94229.53;5011225;28;20041;-77
2021/10/07 02:06:45;;;;;;;10.93;6.97;;;;;;;9.47;68.00;94223.06;5007914;28;20710;-77
2021/10/07 02:09:10;;;;;;;13.00;7.97;;;;;;;9.59;68.07;94235.81;5012372;28;20440;-76
2021/10/07 02:11:36;;;;;;;8.68;6.95;;;;;;;9.79;67.16;94235.41;5016611;28;20558;-76
2021/10/07 02:14:02;;;;;;;10.48;6.88;;;;;;;9.82;66.40;94216.22;5006965;28;20147;-77
2021/10/07 02:16:32;;;;;;;13.63;5.88;;;;;;;9.80;66.76;94231.66;5013740;28;20084;-77
2021/10/07 02:18:58;;;;;;;10.13;6.47;;;;;;;9.51;67.13;94245.28;5009598;28;20059;-77
2021/10/07 02:21:24;;;;;;;11.98;7.13;;;;;;;9.43;67.33;94244.09;5014894;28;20147;-77
2021/10/07 02:23:49;;;;;;;11.70;6.40;;;;;;;9.36;67.16;94238.38;5007303;28;20585;-75
2021/10/07 02:26:15;;;;;;;8.85;6.75;;;;;;;9.57;66.92;94238.78;5004334;28;20073;-76
2021/10/07 02:28:41;;;;;;;11.90;7.20;;;;;;;9.47;66.80;94238.19;5008868;28;20137;-76
2021/10/07 02:31:08;;;;;;;12.25;7.80;;;;;;;9.54;65.98;94239.34;5011054;28;20173;-76
2021/10/07 02:33:33;;;;;;;9.05;6.97;;;;;;;9.68;65.68;94228.75;5007540;28;20501;-76
2021/10/07 02:35:59;;;;;;;10.23;6.32;;;;;;;9.57;66.08;94232.69;5013189;28;20488;-77
2021/10/07 02:38:24;;;;;;;10.52;7.05;;;;;;;9.48;66.26;94229.16;5009156;28;20459;-77
2021/10/07 02:40:50;;;;;;;10.82;7.15;;;;;;;9.59;65.82;94214.56;5007676;28;20100;-77
2021/10/07 02:43:15;;;;;;;12.68;7.00;;;;;;;9.76;65.68;94234.13;5009299;28;20531;-74
2021/10/07 02:45:41;;;;;;;10.88;6.95;;;;;;;9.41;66.60;94224.22;5009840;28;20034;-75
2021/10/07 02:48:06;;;;;;;11.68;7.18;;;;;;;9.63;65.92;94218.22;5007453;28;20039;-76
2021/10/07 02:50:32;;;;;;;15.88;7.88;;;;;;;9.19;68.10;94227.56;5003199;28;20064;-76
2021/10/07 02:52:57;;;;;;;14.40;8.80;;;;;;;9.13;67.85;94218.13;5008208;28;20042;-77
2021/10/07 02:55:22;;;;;;;13.02;8.05;;;;;;;9.06;68.16;94216.88;5014431;28;20046;-77
2021/10/07 02:57:48;;;;;;;12.40;7.80;;;;;;;9.39;66.90;94229.81;5003628;28;20052;-76
2021/10/07 03:00:16;;;;;;;13.07;7.95;;;;;;;9.69;65.83;94238.25;5004539;28;20351;-76
2021/10/07 03:02:42;;;;;;;14.52;8.07;;;;;;;9.67;65.04;94227.16;5007817;28;20032;-75
2021/10/07 03:05:07;;;;;;;13.10;7.43;;;;;;;9.57;65.02;94233.47;5012838;28;20049;-76
2021/10/07 03:07:34;;;;;;;13.25;8.23;;;;;;;10.09;63.30;94240.06;5013997;28;20061;-76
2021/10/07 03:09:59;;;;;;;13.00;8.15;;;;;;;10.09;63.18;94240.06;5012461;28;20052;-77
2021/10/07 03:12:25;;;;;;;13.45;7.53;;;;;;;9.96;63.09;94224.16;5010656;28;20014;-75
2021/10/07 03:14:50;;;;;;;9.18;6.57;;;;;;;10.28;62.26;94235.41;5015944;28;20586;-76
2021/10/07 03:17:18;;;;;;;11.85;7.38;;;;;;;10.03;63.42;94235.94;5008245;28;20045;-77
2021/10/07 03:19:44;;;;;;;14.70;8.52;;;;;;;9.98;63.38;94225.44;5008460;28;20551;-77
2021/10/07 03:22:10;;;;;;;15.00;8.55;;;;;;;10.21;62.91;94226.28;5009683;28;20703;-76
2021/10/07 03:24:36;;;;;;;12.00;7.13;;;;;;;9.99;63.01;94219.03;5004511;28;20108;-72
2021/10/07 03:27:03;;;;;;;11.18;7.00;;;;;;;10.03;62.73;94220.00;5014005;28;20464;-75
2021/10/07 03:29:30;;;;;;;14.15;7.68;;;;;;;10.21;62.87;94244.88;5008705;28;20602;-77
2021/10/07 03:31:55;;;;;;;10.68;6.47;;;;;;;10.14;62.67;94252.47;5013276;28;20048;-78
2021/10/07 03:34:21;;;;;;;13.35;9.02;;;;;;;10.22;62.65;94249.88;5001257;28;20081;-77
2021/10/07 03:36:46;;;;;;;11.65;7.00;;;;;;;10.24;62.18;94246.94;5013281;28;20504;-77
2021/10/07 03:39:11;;;;;;;15.88;8.80;;;;;;;10.28;62.28;94243.38;5010378;28;20493;-77
2021/10/07 03:41:37;;;;;;;9.85;6.05;;;;;;;10.23;62.79;94246.13;5006604;28;20072;-77
2021/10/07 03:44:02;;;;;;;12.10;7.47;;;;;;;9.97;63.54;94244.34;5008019;28;20571;-77
2021/10/07 03:46:28;;;;;;;9.18;5.72;;;;;;;9.74;64.19;94238.94;5011644;28;20133;-77
2021/10/07 03:48:53;;;;;;;10.15;7.03;;;;;;;9.59;65.34;94241.13;5010597;28;20052;-76
2021/10/07 03:51:19;;;;;;;11.07;7.15;;;;;;;9.12;66.80;94229.81;5013021;28;20292;-76
2021/10/07 03:53:44;;;;;;;12.95;7.35;;;;;;;9.42;66.25;94223.94;5011198;28;20512;-76
2021/10/07 03:56:10;;;;;;;12.13;7.22;;;;;;;9.34;66.48;94221.94;5006777;28;20682;-77
2021/10/07 03:58:35;;;;;;;12.18;7.07;;;;;;;9.61;65.76;94249.59;5012131;28;20535;-74
2021/10/07 04:01:01;;;;;;;11.55;7.50;;;;;;;9.67;65.49;94224.50;5008244;28;20077;-74
2021/10/07 04:03:27;;;;;;;10.20;6.25;;;;;;;9.59;64.95;94209.25;5007952;28;20435;-73
2021/10/07 04:05:54;;;;;;;12.55;7.95;;;;;;;10.03;64.07;94241.25;5013708;28;20029;-76
2021/10/07 04:08:19;;;;;;;11.82;7.25;;;;;;;10.00;64.12;94235.78;5007560;28;20465;-76
2021/10/07 04:10:47;;;;;;;10.40;7.13;;;;;;;9.80;64.60;94199.78;5006467;28;20544;-76
2021/10/07 04:13:12;;;;;;;13.15;7.22;;;;;;;9.94;64.47;94205.84;5007335;28;20049;-77
2021/10/07 04:15:38;;;;;;;12.07;8.80;;;;;;;9.91;64.76;94206.47;5007386;28;20025;-77
2021/10/07 04:18:03;;;;;;;10.15;7.43;;;;;;;9.72;65.58;94197.84;5008591;28;20025;-76
2021/10/07 04:20:29;;;;;;;11.80;6.97;;;;;;;9.72;65.72;94214.56;5009596;28;20124;-76
2021/10/07 04:22:57;;;;;;;14.38;8.40;;;;;;;9.44;66.41;94184.59;5009476;28;20056;-76
2021/10/07 04:25:22;;;;;;;9.85;6.80;;;;;;;9.66;65.59;94193.72;5007058;28;20096;-77
2021/10/07 04:27:52;;;;;;;11.55;7.43;;;;;;;9.63;65.73;94196.97;5011475;28;20531;-76
2021/10/07 04:30:18;;;;;;;12.13;8.20;;;;;;;9.33;66.57;94182.44;5011849;28;20037;-77
2021/10/07 04:32:43;;;;;;;11.13;7.55;;;;;;;9.17;67.25;94170.56;5005715;28;20530;-77
2021/10/07 04:35:09;;;;;;;9.90;6.60;;;;;;;9.49;67.54;94183.69;5007147;28;20076;-77
2021/10/07 04:37:34;;;;;;;10.35;7.15;;;;;;;9.26;67.04;94185.50;5011342;28;20062;-72
2021/10/07 04:40:00;;;;;;;11.50;6.80;;;;;;;9.06;68.21;94191.16;5012160;28;20041;-76
2021/10/07 04:42:25;;;;;;;12.57;7.78;;;;;;;9.01;67.81;94162.06;5001733;28;20460;-76
2021/10/07 04:44:51;;;;;;;11.18;7.88;;;;;;;9.47;67.21;94190.41;5008695;28;20037;-76
2021/10/07 04:47:19;;;;;;;17.35;7.78;;;;;;;9.32;67.06;94186.97;5005494;28;20030;-72
2021/10/07 04:49:44;;;;;;;13.60;7.78;;;;;;;9.26;66.96;94188.16;4996790;28;20041;-76
2021/10/07 04:52:10;;;;;;;16.77;8.38;;;;;;;9.62;66.46;94211.34;5009710;28;20048;-77
2021/10/07 04:54:35;;;;;;;12.85;7.05;;;;;;;9.65;64.74;94202.75;5005720;28;20075;-75
2021/10/07 04:57:01;;;;;;;13.48;6.95;;;;;;;9.91;63.52;94205.69;5011967;28;20075;-76
2021/10/07 04:59:26;;;;;;;10.20;7.20;;;;;;;9.82;62.86;94184.34;5009805;28;20044;-77
2021/10/07 05:01:52;;;;;;;10.85;7.20;;;;;;;9.86;62.41;94211.88;5003460;28;20631;-76
2021/10/07 05:04:17;;;;;;;12.13;7.72;;;;;;;9.86;62.13;94215.34;5011697;28;20092;-76
2021/10/07 05:06:42;;;;;;;11.40;7.88;;;;;;;9.69;62.69;94219.66;5008874;28;20041;-76
2021/10/07 05:09:08;;;;;;;9.43;6.50;;;;;;;9.60;62.99;94206.31;5007350;28;20073;-75
2021/10/07 05:11:33;;;;;;;10.35;6.80;;;;;;;9.88;62.16;94210.50;5006923;28;20050;-74
2021/10/07 05:13:59;;;;;;;10.20;7.00;;;;;;;10.04;61.84;94218.13;5011397;28;20045;-76
2021/10/07 05:16:24;;;;;;;11.20;7.70;;;;;;;10.20;61.13;94224.69;5005788;28;20634;-78
2021/10/07 05:18:49;;;;;;;10.70;7.05;;;;;;;9.77;62.02;94219.78;5003442;28;20038;-76
2021/10/07 05:21:15;;;;;;;15.52;9.07;;;;;;;9.57;62.42;94212.22;4994741;28;20030;-76
2021/10/07 05:23:40;;;;;;;13.05;8.23;;;;;;;9.67;63.10;94224.50;5009527;28;20095;-75
2021/10/07 05:26:06;;;;;;;12.73;7.70;;;;;;;9.68;62.76;94199.53;5009462;28;20037;-74
2021/10/07 05:28:31;;;;;;;13.27;7.38;;;;;;;9.53;63.23;94199.84;5000357;28;20033;-77
2021/10/07 05:30:57;;;;;;;11.00;7.32;;;;;;;9.59;64.08;94214.56;5006740;28;20045;-75
2021/10/07 05:33:22;;;;;;;11.63;7.57;;;;;;;9.49;64.28;94202.28;5006205;28;20025;-75
2021/10/07 05:35:49;;;;;;;12.45;7.78;;;;;;;9.44;64.64;94208.47;5011510;28;20041;-76
2021/10/07 05:38:15;;;;;;;13.32;7.13;;;;;;;9.39;64.66;94194.53;5011991;28;20040;-76
2021/10/07 05:40:41;;;;;;;15.82;8.70;;;;;;;9.39;64.50;94189.22;5002871;28;20041;-77
2021/10/07 05:43:08;;;;;;;13.40;7.28;;;;;;;9.59;64.32;94209.25;5006782;28;20038;-76
2021/10/07 05:45:34;;;;;;;11.88;7.30;;;;;;;9.82;63.24;94216.22;5011371;28;20064;-77
2021/10/07 05:47:59;;;;;;;10.77;6.63;;;;;;;9.69;63.06;94201.09;5005776;28;20025;-77
2021/10/07 05:50:25;;;;;;;17.63;7.35;;;;;;;9.82;62.44;94213.56;5002518;28;20052;-76
2021/10/07 05:52:50;;;;;;;10.65;7.00;;;;;;;10.11;61.75;94216.66;5008757;28;21104;-76
2021/10/07 05:55:15;;;;;;;10.45;6.18;;;;;;;10.09;60.86;94213.50;5010105;28;20498;-76
2021/10/07 05:57:41;;;;;;;11.27;6.55;;;;;;;10.09;61.12;94213.50;5010330;28;20144;-76
2021/10/07 06:00:08;;;;;;;9.43;6.30;;;;;;;9.98;61.43;94211.34;5010758;28;20080;-77
2021/10/07 06:02:36;;;;;;;9.80;6.65;;;;;;;10.28;60.04;94211.47;5013229;28;20041;-75
2021/10/07 06:05:07;;;;;;;11.15;5.75;;;;;;;10.26;59.98;94216.31;5010254;28;20029;-77
2021/10/07 06:07:32;;;;;;;7.47;5.63;;;;;;;10.40;59.15;94202.22;5009820;28;20067;-76
2021/10/07 06:09:58;;;;;;;7.35;5.22;;;;;;;10.52;59.28;94221.84;5004969;28;20049;-77
2021/10/07 06:12:24;;;;;;;9.85;5.00;;;;;;;10.56;58.91;94227.38;5011538;28;20025;-77
2021/10/07 06:14:49;;;;;;;10.63;6.10;;;;;;;10.03;59.81;94220.00;5009448;28;20136;-76
2021/10/07 06:17:15;;;;;;;9.02;5.40;;;;;;;10.27;58.93;94241.00;5010201;28;20083;-77
2021/10/07 06:21:45;;;;;;;9.95;6.07;;;;;;;10.27;59.36;94248.97;5049157;27;21197;-72
2021/10/07 06:24:10;;;;;;;8.18;5.50;;;;;;;10.42;59.08;94251.31;5026383;28;20515;-77
2021/10/07 06:26:36;;;;;;;7.60;5.65;;;;;;;10.43;58.86;94244.94;5028978;28;20087;-76
2021/10/07 06:29:01;;;;;;;11.45;6.13;;;;;;;10.69;57.98;94256.56;5033954;28;20098;-75
2021/10/07 06:31:27;;;;;;;9.00;5.25;;;;;;;11.11;57.00;94265.09;5022439;28;20029;-72
2021/10/07 06:33:52;;;;;;;7.82;5.30;;;;;;;10.87;56.68;94236.16;5025990;28;20044;-76
2021/10/07 06:36:18;;;;;;;7.95;4.55;;;;;;;11.16;56.69;94254.31;5016116;28;20025;-77
2021/10/07 06:38:44;;;;;;;8.57;4.97;;;;;;;10.91;56.70;94239.00;5034403;28;20053;-74
2021/10/07 06:41:15;;;;;;;7.75;4.85;;;;;;;10.88;56.60;94252.91;5001560;28;20088;-76
2021/10/07 06:43:41;;;;;;;7.32;5.30;;;;;;;11.10;56.31;94252.91;5032602;28;20057;-72
2021/10/07 06:46:06;;;;;;;12.57;4.65;;;;;;;11.02;55.84;94249.09;5031642;28;20148;-77
2021/10/07 06:48:33;;;;;;;7.57;4.85;;;;;;;10.79;56.73;94246.75;4989132;28;20052;-76
2021/10/07 06:50:59;;;;;;;10.57;4.78;;;;;;;10.97;56.64;94241.22;5023095;28;20503;-76
2021/10/07 06:53:25;;;;;;;19.38;5.25;;;;;;;10.98;56.93;94247.34;5031201;28;20029;-77
2021/10/07 06:55:50;;;;;;;7.22;4.75;;;;;;;10.45;57.04;94228.69;5030693;28;20325;-72
2021/10/07 06:58:18;;;;;;;11.70;5.40;;;;;;;10.46;57.33;94246.22;5029597;28;20104;-77
2021/10/07 07:00:44;;;;;;;9.13;5.75;;;;;;;10.70;56.73;94244.84;5026890;28;20044;-75
2021/10/07 07:03:10;;;;;;;7.30;4.35;;;;;;;10.76;56.44;94234.81;5021943;28;20684;-77
2021/10/07 07:05:35;;;;;;;14.00;5.22;;;;;;;10.56;56.78;94230.78;5011663;28;20045;-73
2021/10/07 07:08:05;;;;;;;9.88;5.22;;;;;;;10.10;58.02;94195.69;5027372;28;20021;-72
2021/10/07 07:10:30;;;;;;;10.32;5.53;;;;;;;10.71;57.58;94258.88;5026777;28;20042;-77
2021/10/07 07:12:56;;;;;;;7.70;5.28;;;;;;;10.02;59.24;94230.94;5030035;28;20040;-73
2021/10/07 07:15:21;;;;;;;10.50;5.68;;;;;;;10.11;60.29;94245.91;5029743;28;20559;-77
2021/10/07 07:17:48;;;;;;;9.48;5.38;;;;;;;10.02;60.63;94245.03;5021513;28;20563;-76
2021/10/07 07:20:14;;;;;;;8.35;4.85;;;;;;;10.18;61.54;94240.16;5025462;28;20049;-76
2021/10/07 07:22:40;;;;;;;9.75;6.00;;;;;;;10.27;61.66;94259.59;5027118;28;20516;-77
2021/10/07 07:25:07;;;;;;;16.20;6.80;;;;;;;10.43;61.49;94246.78;5026897;28;20038;-77
2021/10/07 07:27:34;;;;;;;8.63;5.45;;;;;;;10.40;62.34;94242.09;5020719;28;20033;-78
2021/10/07 07:30:03;;;;;;;10.13;5.38;;;;;;;10.47;62.97;94261.06;5010772;28;20037;-77
2021/10/07 07:32:29;;;;;;;9.75;4.78;;;;;;;10.13;64.30;94272.94;5003199;28;20116;-76
2021/10/07 07:34:54;;;;;;;8.52;5.15;;;;;;;10.23;64.38;94270.06;5006252;28;20518;-77
2021/10/07 07:37:19;;;;;;;7.78;4.35;;;;;;;10.10;65.01;94278.88;5020573;28;20040;-77
2021/10/07 07:39:45;;;;;;;6.80;4.25;;;;;;;10.13;64.95;94283.56;5020177;28;20048;-77
2021/10/07 07:42:10;;;;;;;6.95;4.40;;;;;;;10.44;64.66;94289.06;5014292;28;20045;-72
2021/10/07 07:44:36;;;;;;;6.47;4.10;;;;;;;10.27;64.27;94286.19;4996446;28;20029;-74
2021/10/07 07:47:02;;;;;;;7.70;4.68;;;;;;;10.14;64.52;94265.75;5017246;28;20233;-77
2021/10/07 07:49:29;;;;;;;7.10;4.45;;;;;;;10.57;62.83;94287.44;5008457;28;20064;-74
2021/10/07 07:51:54;;;;;;;9.35;4.85;;;;;;;10.70;61.80;94297.25;5016549;28;20033;-72
2021/10/07 07:54:20;;;;;;;6.43;4.05;;;;;;;10.74;61.36;94292.88;5014531;28;20266;-76
2021/10/07 07:56:45;;;;;;;6.18;3.70;;;;;;;10.78;60.51;94277.91;5013089;28;20167;-77
2021/10/07 07:59:11;;;;;;;5.18;3.47;;;;;;;11.10;59.66;94301.56;5003177;28;20480;-76
2021/10/07 08:01:37;;;;;;;8.43;3.63;;;;;;;11.05;58.93;94293.72;5015945;28;20057;-78
2021/10/07 08:04:06;;;;;;;7.60;4.53;;;;;;;10.91;58.94;94298.31;5012688;28;20052;-72
2021/10/07 08:06:33;;;;;;;6.80;3.88;;;;;;;10.69;57.98;94282.38;5013070;28;20063;-76
2021/10/07 08:08:59;;;;;;;7.43;3.97;;;;;;;10.37;58.95;94287.91;5011593;28;20034;-77
2021/10/07 08:11:25;;;;;;;8.63;5.05;;;;;;;10.36;59.19;94296.94;5011303;28;20498;-76
2021/10/07 08:13:50;;;;;;;8.70;5.13;;;;;;;10.59;58.84;94285.25;5015056;28;20456;-77
2021/10/07 08:16:16;;;;;;;7.32;4.45;;;;;;;10.84;57.59;94286.53;5005746;28;20072;-77
2021/10/07 08:18:41;;;;;;;8.18;3.72;;;;;;;10.36;58.53;94280.97;5008405;28;20049;-77
2021/10/07 08:21:07;;;;;;;8.57;4.63;;;;;;;10.78;58.10;94285.09;5012220;28;20511;-77
2021/10/07 08:23:35;;;;;;;7.55;4.88;;;;;;;11.03;57.53;94279.94;5009864;28;20478;-75
2021/10/07 08:26:01;;;;;;;6.10;4.53;;;;;;;11.04;56.42;94284.19;5015095;28;20014;-76
2021/10/07 08:28:27;;;;;;;9.50;4.78;;;;;;;10.95;56.25;94278.03;5011561;28;20343;-77
2021/10/07 08:30:53;;;;;;;5.20;3.58;;;;;;;10.82;56.10;94275.41;5018196;28;20037;-77
2021/10/07 08:33:18;;;;;;;10.27;4.78;;;;;;;10.94;56.39;94289.75;5010224;28;20187;-76
2021/10/07 08:35:44;;;;;;;7.18;4.03;;;;;;;10.56;56.64;94293.84;5009667;28;20377;-78
2021/10/07 08:38:10;;;;;;;7.50;4.47;;;;;;;10.80;56.67;94286.38;5016946;28;20079;-76
2021/10/07 08:40:36;;;;;;;6.93;5.03;;;;;;;10.87;55.81;94292.03;5015868;28;20293;-73
2021/10/07 08:43:02;;;;;;;7.35;4.80;;;;;;;10.98;56.01;94292.59;5013584;28;20131;-73
2021/10/07 08:45:29;;;;;;;4.85;3.60;;;;;;;10.61;55.64;94235.22;5022160;28;20160;-78
2021/10/07 08:47:56;;;;;;;7.85;5.22;;;;;;;10.61;56.13;94291.06;5007038;28;20115;-78
2021/10/07 08:50:22;;;;;;;5.60;4.40;;;;;;;10.51;55.87;94278.00;5017170;28;20730;-76
2021/10/07 08:52:48;;;;;;;7.10;3.65;;;;;;;10.94;55.27;94270.34;5006585;28;20041;-77
2021/10/07 08:55:13;;;;;;;6.30;3.85;;;;;;;11.43;54.09;94307.41;5012616;28;20044;-76
2021/10/07 08:57:39;;;;;;;7.65;4.18;;;;;;;11.18;53.27;94287.56;5015910;28;20045;-76
2021/10/07 09:00:11;;;;;;;7.20;4.38;;;;;;;11.32;52.75;94298.13;5006072;28;20099;-77
2021/10/07 09:02:37;;;;;;;6.13;4.18;;;;;;;11.04;53.10;94302.03;5017552;28;20064;-76
2021/10/07 09:05:08;;;;;;;7.03;4.07;;;;;;;11.26;53.01;94309.19;5017328;28;20025;-77
2021/10/07 09:07:51;;;;;;;4.03;3.53;;;;;;;11.36;52.85;94309.72;5011016;28;20092;-71
2021/10/07 09:10:16;;;;;;;6.50;3.65;;;;;;;11.34;52.95;94308.47;5021229;28;20026;-78
2021/10/07 09:13:02;;;;;;;7.28;5.03;;;;;;;11.35;52.72;94302.03;5012403;28;20056;-78
2021/10/07 09:15:29;;;;;;;6.15;4.70;;;;;;;11.73;52.66;94303.19;5013563;28;20714;-76
2021/10/07 09:17:54;;;;;;;8.10;4.80;;;;;;;11.62;51.96;94274.47;5012665;28;20474;-77
2021/10/07 09:20:34;;;;;;;8.68;5.43;;;;;;;12.18;51.56;94309.13;5019893;28;20107;-76
2021/10/07 09:23:15;;;;;;;8.50;5.40;;;;;;;12.14;50.52;94283.38;5014791;28;21672;-77
2021/10/07 09:26:07;;;;;;;10.75;6.03;;;;;;;11.98;50.60;94299.81;5004774;28;20761;-75
2021/10/07 09:29:04;;;;;;;13.73;6.50;;;;;;;12.14;50.70;94304.72;5008991;28;20050;-76
2021/10/07 09:31:33;;;;;;;9.75;6.38;;;;;;;12.13;50.40;94297.81;5010884;28;20051;-76
2021/10/07 09:34:03;;;;;;;8.98;5.57;;;;;;;12.22;50.03;94302.09;5011067;28;20129;-76
2021/10/07 09:36:30;;;;;;;12.32;6.13;;;;;;;11.77;50.62;94272.16;5013800;28;20527;-77
2021/10/07 09:38:56;;;;;;;7.15;5.30;;;;;;;12.23;50.53;94294.84;5013610;28;20045;-76
2021/10/07 09:41:27;;;;;;;8.38;5.70;;;;;;;12.30;49.97;94303.19;5008917;28;20158;-77
2021/10/07 09:43:57;;;;;;;7.85;5.45;;;;;;;12.34;49.99;94301.47;5014814;28;20073;-74
2021/10/07 09:46:49;;;;;;;9.27;5.45;;;;;;;12.22;49.96;94296.75;5009982;28;20378;-77
2021/10/07 09:49:16;;;;;;;7.40;5.13;;;;;;;11.40;51.44;94296.56;5006534;28;20186;-76
2021/10/07 09:51:47;;;;;;;7.60;5.70;;;;;;;11.41;51.90;94290.94;5012495;28;20531;-76
2021/10/07 09:54:25;;;;;;;8.32;4.47;;;;;;;11.37;51.78;94283.88;4999449;28;20052;-77
2021/10/07 09:56:59;;;;;;;7.95;5.10;;;;;;;11.56;51.52;94295.13;5010705;28;20187;-76
2021/10/07 09:59:26;;;;;;;8.88;5.30;;;;;;;11.49;52.44;94297.44;5008506;28;20097;-77
2021/10/07 10:01:54;;;;;;;6.95;4.70;;;;;;;11.72;51.28;94276.84;5017239;28;20041;-76
2021/10/07 10:04:20;;;;;;;7.20;4.93;;;;;;;11.75;50.98;94285.00;5007739;28;20112;-74
2021/10/07 10:06:46;;;;;;;8.77;4.15;;;;;;;11.69;51.26;94286.22;5000836;28;20041;-76
2021/10/07 10:09:12;;;;;;;7.38;5.30;;;;;;;11.71;50.84;94284.06;5011571;28;20070;-77
2021/10/07 10:11:40;;;;;;;8.93;4.22;;;;;;;11.84;50.88;94259.16;5009230;28;20471;-76
2021/10/07 10:14:06;;;;;;;6.53;4.28;;;;;;;12.00;50.48;94268.31;5013965;28;20037;-76
2021/10/07 10:16:34;;;;;;;5.97;4.43;;;;;;;11.55;51.18;94280.22;5007327;28;20042;-74
2021/10/07 10:19:00;;;;;;;5.70;4.00;;;;;;;11.80;50.71;94274.22;5011108;28;21664;-77
2021/10/07 10:21:27;;;;;;;5.38;3.67;;;;;;;11.13;52.11;94279.69;5009947;28;20637;-76
2021/10/07 10:23:54;;;;;;;7.30;4.35;;;;;;;11.57;51.77;94268.19;5011946;28;20037;-76
2021/10/07 10:26:20;;;;;;;6.40;4.75;;;;;;;11.62;51.30;94269.91;5009813;28;20029;-76
2021/10/07 10:28:52;;;;;;;7.10;4.20;;;;;;;11.56;52.15;94263.16;5012464;28;20408;-77
2021/10/07 10:31:25;;;;;;;5.90;4.10;;;;;;;11.53;51.63;94274.44;5016369;28;20038;-77
2021/10/07 10:34:10;;;;;;;5.82;4.20;;;;;;;11.45;52.25;94280.47;5014395;28;20064;-72
2021/10/07 10:36:40;;;;;;;6.00;4.03;;;;;;;11.32;52.07;94266.16;5021249;28;20167;-72
2021/10/07 10:39:24;;;;;;;3.85;3.08;;;;;;;11.17;52.97;94272.66;5013172;28;20037;-76
2021/10/07 10:41:50;;;;;;;6.82;3.83;;;;;;;11.18;53.13;94265.47;5010312;28;20841;-76
2021/10/07 10:44:27;;;;;;;6.18;3.30;;;;;;;11.40;52.97;94264.63;5008243;28;20087;-76
2021/10/07 10:47:00;;;;;;;6.45;3.83;;;;;;;11.26;52.96;94251.41;5014484;28;20121;-76
2021/10/07 10:49:36;;;;;;;7.28;4.07;;;;;;;11.35;53.24;94249.56;5009539;28;20038;-78
2021/10/07 10:52:30;;;;;;;6.75;3.58;;;;;;;11.61;52.39;94255.03;5011542;28;20118;-72
2021/10/07 10:54:57;;;;;;;7.82;3.75;;;;;;;11.85;51.49;94258.06;5008222;28;20267;-75
2021/10/07 10:57:26;;;;;;;6.45;3.30;;;;;;;11.99;51.40;94253.41;5008282;28;20091;-76
2021/10/07 11:00:10;;;;;;;7.80;3.53;;;;;;;11.78;51.50;94256.97;5012907;28;20049;-76
2021/10/07 11:02:38;;;;;;;7.00;3.90;;;;;;;11.78;51.47;94243.66;5008569;28;20451;-76
2021/10/07 11:05:30;;;;;;;6.15;3.83;;;;;;;11.94;50.83;94247.44;5000875;28;20481;-75
2021/10/07 11:08:16;;;;;;;5.28;3.78;;;;;;;11.80;51.43;94239.56;5006523;28;20044;-76
2021/10/07 11:10:44;;;;;;;5.75;3.67;;;;;;;11.88;52.14;94235.38;5009887;28;20557;-78
2021/10/07 11:13:15;;;;;;;4.05;3.70;;;;;;;11.82;52.26;94229.38;5014155;28;20060;-76
2021/10/07 11:15:41;;;;;;;7.28;3.83;;;;;;;11.79;53.55;94227.31;5018227;28;20125;-77
2021/10/07 11:18:07;;;;;;;7.93;3.88;;;;;;;11.71;53.64;94228.09;5016999;28;20345;-74
2021/10/07 11:20:34;;;;;;;5.35;4.13;;;;;;;11.94;53.89;94228.78;5003014;28;20054;-75
2021/10/07 11:22:59;;;;;;;6.53;4.32;;;;;;;11.97;53.59;94231.63;5017667;28;20107;-76
2021/10/07 11:25:26;;;;;;;5.55;3.72;;;;;;;11.93;53.96;94217.31;5010246;28;20508;-77
2021/10/07 11:27:51;;;;;;;8.48;4.55;;;;;;;12.19;53.63;94219.25;5012723;28;20041;-76
2021/10/07 11:30:20;;;;;;;8.02;3.88;;;;;;;12.24;53.76;94221.75;5014046;28;20237;-76
2021/10/07 11:32:47;;;;;;;6.35;3.47;;;;;;;12.16;53.46;94220.66;5010914;28;20025;-78
2021/10/07 11:35:15;;;;;;;9.15;4.28;;;;;;;12.20;53.18;94218.16;5008178;28;20103;-72
2021/10/07 11:37:52;;;;;;;9.25;3.25;;;;;;;12.18;52.54;94223.00;5016295;28;20095;-76
2021/10/07 11:40:21;;;;;;;6.05;3.25;;;;;;;12.45;52.28;94220.03;5008171;28;20038;-75
2021/10/07 11:42:47;;;;;;;6.43;3.20;;;;;;;12.60;51.68;94224.16;5006626;28;20823;-78